createdAt,value
2019-01-08T00:00:15.690Z,77.3
2019-01-08T00:03:15.379Z,77.7
2019-01-08T00:06:15.157Z,77.4
2019-01-08T00:09:15.797Z,77.1
2019-01-08T00:12:15.366Z,77.4
2019-01-08T00:15:15.936Z,77.4
2019-01-08T00:18:15.666Z,77.5
2019-01-08T00:21:15.407Z,77.4
2019-01-08T00:24:15.056Z,77.3
2019-01-08T00:27:15.668Z,77.0
2019-01-08T00:30:15.421Z,77.1
2019-01-08T00:33:15.265Z,77.1
2019-01-08T00:36:15.007Z,77.0
2019-01-08T00:39:15.729Z,76.9
2019-01-08T00:42:15.474Z,76.6
2019-01-08T00:45:15.270Z,76.7
2019-01-08T00:48:15.071Z,76.4
2019-01-08T00:51:15.720Z,76.5
2019-01-08T00:54:15.358Z,76.6
2019-01-08T00:57:15.092Z,76.4
2019-01-08T01:00:15.594Z,76.3
2019-01-08T01:03:15.166Z,76.5
2019-01-08T01:06:15.857Z,76.2
2019-01-08T01:09:15.552Z,76.5
2019-01-08T01:12:15.270Z,76.5
2019-01-08T01:15:15.555Z,76.7
2019-01-08T01:18:15.242Z,76.4
2019-01-08T01:21:14.990Z,76.3
2019-01-08T01:24:15.737Z,76.4
2019-01-08T01:27:15.330Z,76.1
2019-01-08T01:30:15.258Z,76.1
2019-01-08T01:33:15.941Z,76.8
2019-01-08T01:36:15.560Z,77.1
2019-01-08T01:39:15.318Z,77.4
2019-01-08T01:42:15.284Z,77.1
2019-01-08T01:45:14.957Z,77.0
2019-01-08T01:48:15.746Z,77.4
2019-01-08T01:51:15.472Z,77.2
2019-01-08T01:54:15.611Z,77.3
2019-01-08T01:57:15.490Z,77.6
2019-01-08T02:00:15.238Z,77.5
2019-01-08T02:03:14.949Z,77.5
2019-01-08T02:06:15.695Z,77.3
2019-01-08T02:09:15.524Z,77.5
2019-01-08T02:12:15.349Z,77.2
2019-01-08T02:15:14.851Z,77.6
2019-01-08T02:18:15.631Z,77.7
2019-01-08T02:21:15.671Z,77.6
2019-01-08T02:24:15.398Z,77.5
2019-01-08T02:27:15.035Z,77.4
2019-01-08T02:30:15.850Z,77.3
2019-01-08T02:33:15.571Z,77.8
2019-01-08T02:36:15.176Z,77.9
2019-01-08T02:39:15.858Z,78.4
2019-01-08T02:42:15.537Z,78.0
2019-01-08T02:45:15.238Z,78.3
2019-01-08T02:48:15.850Z,78.1
2019-01-08T02:51:15.754Z,78.2
2019-01-08T02:54:15.397Z,78.7
2019-01-08T02:57:20.537Z,78.4
2019-01-08T03:00:15.114Z,78.2
2019-01-08T03:03:15.735Z,77.9
2019-01-08T03:06:15.362Z,77.9
2019-01-08T03:09:15.055Z,78.0
2019-01-08T03:12:15.779Z,77.9
2019-01-08T03:15:15.395Z,78.0
2019-01-08T03:18:15.086Z,78.3
2019-01-08T03:21:15.840Z,78.1
2019-01-08T03:24:15.491Z,77.7
2019-01-08T03:27:15.316Z,77.9
2019-01-08T03:30:14.946Z,78.3
2019-01-08T03:33:15.849Z,78.2
2019-01-08T03:36:15.596Z,78.2
2019-01-08T03:39:15.290Z,78.9
2019-01-08T03:42:15.091Z,78.5
2019-01-08T03:45:15.007Z,79.5
2019-01-08T03:48:15.900Z,79.3
2019-01-08T03:51:15.828Z,78.8
2019-01-08T03:54:15.570Z,78.4
2019-01-08T03:57:15.455Z,78.2
2019-01-08T04:00:15.144Z,78.8
2019-01-08T04:03:15.979Z,78.4
2019-01-08T04:06:15.710Z,77.9
2019-01-08T04:09:15.618Z,77.3
2019-01-08T04:12:15.519Z,77.7
2019-01-08T04:15:15.351Z,77.7
2019-01-08T04:18:15.515Z,77.5
2019-01-08T04:21:15.321Z,77.0
2019-01-08T04:24:15.412Z,76.8
2019-01-08T04:27:15.144Z,77.0
2019-01-08T04:30:15.955Z,77.3
2019-01-08T04:33:15.799Z,77.1
2019-01-08T04:36:15.675Z,76.5
2019-01-08T04:39:15.627Z,76.8
2019-01-08T04:42:15.487Z,77.2
2019-01-08T04:45:15.350Z,77.0
2019-01-08T04:48:15.343Z,76.7
2019-01-08T04:51:15.086Z,76.3
2019-01-08T04:54:15.893Z,77.1
2019-01-08T04:57:15.628Z,76.0
2019-01-08T05:00:15.380Z,75.3
2019-01-08T05:03:15.085Z,75.2
2019-01-08T05:06:14.931Z,74.6
2019-01-08T05:09:15.792Z,75.0
2019-01-08T05:12:15.426Z,76.1
2019-01-08T05:15:15.162Z,76.4
2019-01-08T05:18:15.072Z,77.0
2019-01-08T05:21:15.895Z,76.1
2019-01-08T05:24:15.755Z,75.0
2019-01-08T05:27:15.827Z,74.8
2019-01-08T05:30:15.674Z,74.6
2019-01-08T05:33:15.337Z,74.1
2019-01-08T05:36:15.141Z,73.0
2019-01-08T05:39:14.978Z,73.0
2019-01-08T05:42:20.934Z,74.9
2019-01-08T05:45:15.665Z,73.8
2019-01-08T05:48:15.342Z,73.7
2019-01-08T05:51:15.226Z,73.7
2019-01-08T05:54:15.071Z,73.6
2019-01-08T05:57:15.160Z,74.2
2019-01-08T06:00:16.262Z,73.3
2019-01-08T06:03:15.321Z,73.1
2019-01-08T06:06:15.153Z,73.2
2019-01-08T06:09:15.580Z,73.5
2019-01-08T06:12:15.455Z,72.1
2019-01-08T06:15:15.403Z,71.7
2019-01-08T06:18:15.457Z,72.1
2019-01-08T06:21:15.494Z,71.5
2019-01-08T06:24:15.188Z,72.2
2019-01-08T06:27:14.961Z,71.9
2019-01-08T06:30:15.723Z,71.9
2019-01-08T06:33:15.617Z,71.1
2019-01-08T06:36:15.431Z,71.7
2019-01-08T06:39:15.316Z,71.5
2019-01-08T06:42:15.096Z,72.1
2019-01-08T06:45:16.072Z,71.7
2019-01-08T06:48:15.809Z,72.2
2019-01-08T06:51:15.792Z,71.8
2019-01-08T06:54:15.766Z,71.7
2019-01-08T06:57:15.522Z,71.9
2019-01-08T07:00:15.519Z,72.4
2019-01-08T07:03:15.549Z,71.9
2019-01-08T07:06:15.448Z,70.8
2019-01-08T07:09:15.411Z,71.8
2019-01-08T07:12:15.334Z,71.6
2019-01-08T07:15:15.216Z,71.7
2019-01-08T07:18:15.053Z,70.3
2019-01-08T07:21:15.964Z,71.2
2019-01-08T07:24:15.864Z,70.1
2019-01-08T07:27:16.634Z,71.3
2019-01-08T07:30:15.846Z,70.1
2019-01-08T07:33:15.599Z,70.2
2019-01-08T07:36:15.171Z,71.1
2019-01-08T07:39:14.979Z,70.7
2019-01-08T07:42:15.954Z,70.4
2019-01-08T07:45:15.745Z,69.4
2019-01-08T07:48:15.575Z,68.8
2019-01-08T07:51:15.609Z,69.0
2019-01-08T07:54:15.356Z,69.1
2019-01-08T07:57:15.288Z,68.4
2019-01-08T08:00:15.171Z,69.1
2019-01-08T08:03:15.490Z,69.6
2019-01-08T08:06:15.362Z,68.1
2019-01-08T08:09:15.483Z,68.7
2019-01-08T08:12:15.284Z,67.5
2019-01-08T08:15:15.168Z,68.8
2019-01-08T08:18:15.940Z,68.1
2019-01-08T08:21:15.727Z,67.1
2019-01-08T08:24:15.583Z,68.1
2019-01-08T08:27:15.399Z,68.5
2019-01-08T08:30:15.131Z,68.6
2019-01-08T08:33:15.165Z,67.5
2019-01-08T08:36:15.946Z,67.4
2019-01-08T08:39:15.028Z,67.8
2019-01-08T08:42:14.969Z,67.8
2019-01-08T08:45:15.843Z,67.4
2019-01-08T08:48:15.547Z,68.0
2019-01-08T08:51:15.261Z,67.6
2019-01-08T08:54:14.863Z,67.9
2019-01-08T08:57:15.663Z,66.9
2019-01-08T09:00:15.376Z,67.6
2019-01-08T09:03:15.267Z,67.5
2019-01-08T09:06:15.137Z,68.9
2019-01-08T09:09:15.000Z,68.7
2019-01-08T09:12:15.814Z,68.2
2019-01-08T09:15:15.565Z,69.1
2019-01-08T09:18:15.431Z,69.0
2019-01-08T09:21:15.232Z,68.8
2019-01-08T09:24:14.924Z,69.1
2019-01-08T09:27:15.726Z,70.7
2019-01-08T09:30:15.438Z,69.9
2019-01-08T09:33:15.234Z,71.8
2019-01-08T09:36:15.062Z,72.1
2019-01-08T09:39:15.931Z,73.7
2019-01-08T09:42:15.911Z,71.8
2019-01-08T09:45:15.914Z,73.5
2019-01-08T09:48:15.917Z,74.1
2019-01-08T09:51:15.691Z,73.2
2019-01-08T09:54:15.475Z,73.7
2019-01-08T09:57:15.461Z,74.9
2019-01-08T10:00:15.496Z,76.3
2019-01-08T10:03:15.302Z,74.9
2019-01-08T10:06:15.396Z,75.2
2019-01-08T10:09:15.148Z,76.0
2019-01-08T10:12:15.963Z,73.9
2019-01-08T10:15:15.868Z,74.2
2019-01-08T10:18:15.974Z,73.8
2019-01-08T10:21:15.825Z,75.2
2019-01-08T10:24:15.579Z,73.9
2019-01-08T10:27:15.468Z,73.8
2019-01-08T10:30:15.134Z,73.9
2019-01-08T10:33:14.921Z,72.9
2019-01-08T10:36:15.855Z,73.3
2019-01-08T10:39:15.746Z,71.1
2019-01-08T10:42:15.402Z,72.0
2019-01-08T10:45:15.404Z,72.0
2019-01-08T10:48:15.251Z,72.2
2019-01-08T10:51:15.148Z,71.8
2019-01-08T10:54:14.958Z,70.8
2019-01-08T10:57:15.871Z,70.9
2019-01-08T11:00:15.733Z,71.4
2019-01-08T11:03:15.627Z,71.2
2019-01-08T11:06:15.391Z,71.4
2019-01-08T11:09:15.288Z,72.4
2019-01-08T11:12:15.232Z,70.8
2019-01-08T11:15:15.127Z,71.8
2019-01-08T11:18:14.958Z,71.0
2019-01-08T11:21:15.901Z,71.1
2019-01-08T11:24:15.823Z,71.8
2019-01-08T11:27:15.617Z,74.0
2019-01-08T11:30:15.304Z,72.6
2019-01-08T11:33:15.049Z,73.3
2019-01-08T11:36:15.038Z,73.7
2019-01-08T11:39:15.828Z,72.9
2019-01-08T11:42:15.695Z,74.1
2019-01-08T11:45:15.573Z,75.2
2019-01-08T11:48:15.401Z,75.4
2019-01-08T11:51:15.283Z,75.5
2019-01-08T11:54:15.014Z,76.7
2019-01-08T11:57:15.905Z,75.0
2019-01-08T12:00:15.805Z,74.9
2019-01-08T12:03:15.999Z,74.2
2019-01-08T12:06:15.765Z,74.3
2019-01-08T12:09:15.663Z,74.0
2019-01-08T12:12:15.498Z,74.0
2019-01-08T12:15:15.673Z,73.5
2019-01-08T12:18:15.842Z,73.6
2019-01-08T12:21:15.645Z,73.4
2019-01-08T12:24:15.350Z,73.3
2019-01-08T12:27:15.071Z,74.1
2019-01-08T12:30:15.839Z,73.9
2019-01-08T12:33:15.830Z,73.5
2019-01-08T12:36:15.688Z,73.9
2019-01-08T12:39:15.529Z,73.9
2019-01-08T12:42:15.290Z,74.0
2019-01-08T12:45:15.096Z,74.5
2019-01-08T12:48:15.862Z,73.7
2019-01-08T12:51:15.986Z,73.4
2019-01-08T12:54:15.667Z,73.5
2019-01-08T12:57:15.441Z,73.4
2019-01-08T13:00:15.287Z,73.4
2019-01-08T13:03:15.125Z,73.2
2019-01-08T13:06:15.838Z,73.2
2019-01-08T13:09:15.637Z,73.7
2019-01-08T13:12:15.271Z,73.1
2019-01-08T13:15:15.151Z,72.8
2019-01-08T13:18:14.966Z,72.4
2019-01-08T13:21:15.912Z,71.9
2019-01-08T13:24:15.776Z,72.4
2019-01-08T13:27:15.611Z,72.2
2019-01-08T13:30:15.230Z,71.1
2019-01-08T13:33:15.352Z,71.8
2019-01-08T13:36:15.074Z,71.4
2019-01-08T13:39:15.904Z,70.8
2019-01-08T13:42:15.768Z,71.2
2019-01-08T13:45:15.717Z,71.9
2019-01-08T13:48:15.567Z,71.7
2019-01-08T13:51:15.681Z,70.7
2019-01-08T13:54:15.446Z,70.1
2019-01-08T13:57:15.268Z,69.3
2019-01-08T14:00:15.093Z,70.0
2019-01-08T14:03:15.055Z,69.4
2019-01-08T14:06:15.896Z,69.5
2019-01-08T14:09:15.734Z,70.5
2019-01-08T14:12:15.346Z,69.7
2019-01-08T14:15:15.125Z,69.3
2019-01-08T14:18:15.103Z,70.6
2019-01-08T14:21:14.992Z,68.9
2019-01-08T14:24:15.744Z,68.1
2019-01-08T14:27:14.918Z,68.1
2019-01-08T14:30:15.668Z,67.5
2019-01-08T14:33:15.458Z,67.0
2019-01-08T14:36:15.300Z,69.3
2019-01-08T14:39:15.265Z,68.1
2019-01-08T14:42:15.008Z,66.2
2019-01-08T14:45:14.980Z,65.3
2019-01-08T14:48:15.854Z,66.7
2019-01-08T14:51:15.088Z,66.2
2019-01-08T14:54:14.982Z,67.2
2019-01-08T14:57:15.958Z,66.3
2019-01-08T15:00:15.158Z,67.4
2019-01-08T15:03:15.163Z,66.8
2019-01-08T15:06:16.043Z,66.7
2019-01-08T15:09:15.009Z,67.6
2019-01-08T15:12:15.900Z,67.9
2019-01-08T15:15:15.744Z,67.6
2019-01-08T15:18:15.547Z,67.5
2019-01-08T15:21:15.381Z,68.2
2019-01-08T15:24:15.569Z,68.4
2019-01-08T15:27:15.809Z,66.5
2019-01-08T15:30:15.019Z,68.7
2019-01-08T15:33:15.940Z,68.7
2019-01-08T15:36:15.841Z,69.0
2019-01-08T15:39:15.668Z,69.3
2019-01-08T15:42:15.440Z,69.5
2019-01-08T15:45:15.307Z,70.1
2019-01-08T15:48:15.063Z,70.0
2019-01-08T15:51:15.965Z,70.2
2019-01-08T15:54:15.444Z,69.7
2019-01-08T15:57:15.258Z,69.5
2019-01-08T16:00:15.602Z,70.1
2019-01-08T16:03:15.550Z,69.8
2019-01-08T16:06:15.433Z,69.4
2019-01-08T16:09:15.422Z,69.0
2019-01-08T16:12:15.252Z,70.0
2019-01-08T16:15:15.032Z,69.4
2019-01-08T16:18:16.047Z,68.3
2019-01-08T16:21:14.981Z,69.8
2019-01-08T16:24:15.857Z,67.6
2019-01-08T16:27:15.583Z,68.0
2019-01-08T16:30:15.304Z,68.1
2019-01-08T16:33:16.490Z,68.6
2019-01-08T16:36:15.446Z,67.5
2019-01-08T16:39:15.707Z,69.0
2019-01-08T16:42:15.167Z,68.4
2019-01-08T16:45:15.205Z,68.7
2019-01-08T16:48:15.118Z,69.1
2019-01-08T16:51:15.923Z,69.0
2019-01-08T16:54:15.751Z,69.5
2019-01-08T16:57:15.701Z,73.5
2019-01-08T17:00:15.487Z,74.4
2019-01-08T17:03:15.218Z,74.7
2019-01-08T17:06:15.191Z,75.4
2019-01-08T17:09:15.183Z,75.2
2019-01-08T17:12:15.974Z,75.8
2019-01-08T17:15:15.686Z,77.3
2019-01-08T17:18:15.657Z,78.8
2019-01-08T17:21:15.495Z,76.3
2019-01-08T17:24:15.371Z,76.4
2019-01-08T17:27:15.806Z,76.0
2019-01-08T17:30:15.828Z,75.4
2019-01-08T17:33:15.613Z,77.2
2019-01-08T17:36:15.846Z,76.6
2019-01-08T17:39:15.611Z,76.9
2019-01-08T17:42:15.407Z,77.1
2019-01-08T17:45:15.383Z,76.4
2019-01-08T17:48:15.221Z,74.0
2019-01-08T17:51:15.124Z,73.7
2019-01-08T17:54:16.167Z,73.8
2019-01-08T17:57:15.228Z,74.4
2019-01-08T18:00:15.938Z,75.5
2019-01-08T18:03:15.777Z,71.7
2019-01-08T18:06:15.567Z,74.7
2019-01-08T18:09:15.537Z,71.7
2019-01-08T18:12:15.413Z,71.1
2019-01-08T18:15:15.195Z,71.0
2019-01-08T18:18:15.102Z,72.9
2019-01-08T18:21:15.263Z,71.7
2019-01-08T18:24:15.124Z,70.7
2019-01-08T18:27:15.175Z,71.1
2019-01-08T18:30:15.102Z,70.3
2019-01-08T18:33:15.086Z,69.4
2019-01-08T18:36:15.121Z,69.2
2019-01-08T18:39:15.911Z,71.3
2019-01-08T18:42:15.666Z,68.4
2019-01-08T18:45:15.914Z,68.2
2019-01-08T18:48:15.621Z,68.8
2019-01-08T18:51:15.453Z,66.8
2019-01-08T18:54:15.268Z,68.9
2019-01-08T18:57:15.267Z,68.0
2019-01-08T19:00:15.135Z,68.8
2019-01-08T19:03:15.872Z,69.2
2019-01-08T19:06:15.566Z,70.1
2019-01-08T19:09:15.293Z,70.4
2019-01-08T19:12:15.352Z,71.4
2019-01-08T19:15:15.117Z,72.4
2019-01-08T19:18:15.293Z,71.5
2019-01-08T19:21:15.134Z,70.9
2019-01-08T19:24:15.140Z,70.9
2019-01-08T19:27:15.915Z,69.5
2019-01-08T19:30:17.065Z,70.4
2019-01-08T19:33:20.881Z,69.1
2019-01-08T19:36:15.768Z,67.6
2019-01-08T19:39:15.791Z,68.1
2019-01-08T19:42:15.896Z,68.2
2019-01-08T19:45:15.713Z,69.4
2019-01-08T19:48:15.334Z,68.9
2019-01-08T19:51:15.934Z,68.6
2019-01-08T19:54:15.818Z,70.5
2019-01-08T19:57:15.671Z,69.0
2019-01-08T20:00:15.588Z,69.3
2019-01-08T20:03:15.197Z,68.8
2019-01-08T20:06:15.231Z,68.5
2019-01-08T20:09:15.666Z,69.0
2019-01-08T20:12:15.188Z,69.7
2019-01-08T20:15:15.824Z,71.1
2019-01-08T20:18:15.867Z,69.6
2019-01-08T20:21:15.206Z,71.7
2019-01-08T20:24:15.431Z,71.6
2019-01-08T20:27:15.768Z,73.0
2019-01-08T20:30:20.507Z,73.2
2019-01-08T20:33:16.950Z,75.8
2019-01-08T20:36:16.145Z,73.3
2019-01-08T20:39:15.585Z,73.0
2019-01-08T20:42:15.714Z,72.9
2019-01-08T20:45:15.505Z,72.8
2019-01-08T20:48:15.243Z,71.4
2019-01-08T20:51:15.266Z,71.7
2019-01-08T20:54:15.666Z,70.4
2019-01-08T20:57:15.473Z,69.0
2019-01-08T21:00:15.798Z,69.3
2019-01-08T21:03:15.708Z,70.6
2019-01-08T21:06:15.478Z,69.2
2019-01-08T21:09:15.361Z,69.9
2019-01-08T21:12:15.520Z,69.8
2019-01-08T21:15:15.186Z,70.7
2019-01-08T21:18:15.302Z,70.1
2019-01-08T21:21:15.226Z,71.4
2019-01-08T21:24:15.209Z,71.4
2019-01-08T21:27:15.219Z,71.6
2019-01-08T21:30:15.242Z,73.3
2019-01-08T21:33:15.317Z,73.2
2019-01-08T21:36:15.337Z,71.6
2019-01-08T21:39:15.720Z,77.1
2019-01-08T21:42:15.271Z,77.9
2019-01-08T21:45:15.250Z,76.6
2019-01-08T21:48:15.249Z,77.7
2019-01-08T21:51:15.360Z,77.3
2019-01-08T21:54:15.454Z,77.2
2019-01-08T21:57:15.244Z,78.0
2019-01-08T22:00:15.238Z,78.3
2019-01-08T22:03:15.292Z,76.9
2019-01-08T22:06:15.283Z,75.9
2019-01-08T22:09:15.318Z,75.0
2019-01-08T22:12:15.250Z,74.1
2019-01-08T22:15:15.269Z,74.7
2019-01-08T22:18:15.321Z,73.3
2019-01-08T22:21:15.633Z,73.4
2019-01-08T22:24:15.407Z,72.4
2019-01-08T22:27:15.338Z,73.0
2019-01-08T22:30:15.311Z,72.2
2019-01-08T22:33:16.753Z,72.6
2019-01-08T22:36:15.667Z,72.0
2019-01-08T22:39:15.471Z,71.7
2019-01-08T22:42:15.286Z,70.7
2019-01-08T22:45:15.204Z,71.4
2019-01-08T22:48:15.301Z,71.7
2019-01-08T22:51:15.343Z,71.8
2019-01-08T22:54:15.318Z,70.8
2019-01-08T22:57:15.221Z,70.5
2019-01-08T23:00:15.220Z,71.1
2019-01-08T23:03:15.525Z,71.3
2019-01-08T23:06:15.363Z,70.3
2019-01-08T23:09:15.306Z,69.7
2019-01-08T23:12:15.222Z,70.6
2019-01-08T23:15:15.179Z,70.7
2019-01-08T23:18:15.239Z,70.7
2019-01-08T23:21:15.328Z,71.0
2019-01-08T23:24:15.294Z,70.1
2019-01-08T23:27:15.244Z,70.7
2019-01-08T23:30:15.284Z,70.6
2019-01-08T23:33:15.206Z,70.2
2019-01-08T23:36:15.288Z,70.2
2019-01-08T23:39:15.312Z,71.1
2019-01-08T23:42:15.386Z,71.6
2019-01-08T23:45:15.248Z,70.9
2019-01-08T23:48:15.255Z,70.8
2019-01-08T23:51:15.333Z,70.9
2019-01-08T23:54:15.303Z,70.8
2019-01-08T23:57:15.514Z,71.3
